sensor_id;sensor_type;location;lat;lon;timestamp;P1;durP1;ratioP1;P2;durP2;ratioP2
71771;SDS011;59606;52.138;5.424;2023-02-28T00:00:19;6.63;;;2.95;;
71771;SDS011;59606;52.138;5.424;2023-02-28T00:02:47;11.00;;;2.50;;
71771;SDS011;59606;52.138;5.424;2023-02-28T00:05:15;12.27;;;2.67;;
71771;SDS011;59606;52.138;5.424;2023-02-28T00:07:46;6.05;;;2.60;;
71771;SDS011;59606;52.138;5.424;2023-02-28T00:10:14;8.25;;;2.78;;
71771;SDS011;59606;52.138;5.424;2023-02-28T00:12:47;7.38;;;2.00;;
71771;SDS011;59606;52.138;5.424;2023-02-28T00:15:14;7.05;;;2.40;;
71771;SDS011;59606;52.138;5.424;2023-02-28T00:17:40;9.63;;;1.93;;
71771;SDS011;59606;52.138;5.424;2023-02-28T00:20:08;5.97;;;2.20;;
71771;SDS011;59606;52.138;5.424;2023-02-28T00:22:36;4.82;;;2.30;;
71771;SDS011;59606;52.138;5.424;2023-02-28T00:25:04;9.52;;;2.67;;
71771;SDS011;59606;52.138;5.424;2023-02-28T00:27:33;5.00;;;2.45;;
71771;SDS011;59606;52.138;5.424;2023-02-28T00:30:01;5.53;;;2.23;;
71771;SDS011;59606;52.138;5.424;2023-02-28T00:32:28;8.43;;;2.30;;
71771;SDS011;59606;52.138;5.424;2023-02-28T00:34:54;5.07;;;2.03;;
71771;SDS011;59606;52.138;5.424;2023-02-28T00:37:21;7.32;;;2.83;;
71771;SDS011;59606;52.138;5.424;2023-02-28T00:39:48;6.28;;;1.90;;
71771;SDS011;59606;52.138;5.424;2023-02-28T00:42:14;4.93;;;1.87;;
71771;SDS011;59606;52.138;5.424;2023-02-28T00:44:40;4.28;;;2.17;;
71771;SDS011;59606;52.138;5.424;2023-02-28T00:47:07;4.75;;;1.80;;
71771;SDS011;59606;52.138;5.424;2023-02-28T00:49:33;9.07;;;2.72;;
71771;SDS011;59606;52.138;5.424;2023-02-28T00:52:00;5.15;;;2.08;;
71771;SDS011;59606;52.138;5.424;2023-02-28T00:54:26;6.20;;;2.13;;
71771;SDS011;59606;52.138;5.424;2023-02-28T00:56:53;5.15;;;2.15;;
71771;SDS011;59606;52.138;5.424;2023-02-28T00:59:19;7.60;;;2.33;;
71771;SDS011;59606;52.138;5.424;2023-02-28T01:01:46;7.55;;;2.40;;
71771;SDS011;59606;52.138;5.424;2023-02-28T01:04:13;4.43;;;1.90;;
71771;SDS011;59606;52.138;5.424;2023-02-28T01:06:40;6.67;;;2.10;;
71771;SDS011;59606;52.138;5.424;2023-02-28T01:09:07;5.43;;;2.05;;
71771;SDS011;59606;52.138;5.424;2023-02-28T01:11:34;7.70;;;2.25;;
71771;SDS011;59606;52.138;5.424;2023-02-28T01:14:01;4.80;;;1.50;;
71771;SDS011;59606;52.138;5.424;2023-02-28T01:16:28;5.25;;;1.83;;
71771;SDS011;59606;52.138;5.424;2023-02-28T01:18:54;5.07;;;1.83;;
71771;SDS011;59606;52.138;5.424;2023-02-28T01:21:21;8.35;;;2.10;;
71771;SDS011;59606;52.138;5.424;2023-02-28T01:23:48;4.20;;;1.70;;
71771;SDS011;59606;52.138;5.424;2023-02-28T01:26:16;3.83;;;1.77;;
71771;SDS011;59606;52.138;5.424;2023-02-28T01:28:46;6.22;;;1.67;;
71771;SDS011;59606;52.138;5.424;2023-02-28T01:31:16;5.67;;;1.73;;
71771;SDS011;59606;52.138;5.424;2023-02-28T01:33:44;4.00;;;1.63;;
71771;SDS011;59606;52.138;5.424;2023-02-28T01:36:21;3.50;;;1.67;;
71771;SDS011;59606;52.138;5.424;2023-02-28T01:38:49;4.13;;;1.90;;
71771;SDS011;59606;52.138;5.424;2023-02-28T01:41:18;6.47;;;2.15;;
71771;SDS011;59606;52.138;5.424;2023-02-28T01:46:13;6.40;;;2.22;;
71771;SDS011;59606;52.138;5.424;2023-02-28T01:48:45;4.88;;;1.85;;
71771;SDS011;59606;52.138;5.424;2023-02-28T01:51:15;8.10;;;2.22;;
71771;SDS011;59606;52.138;5.424;2023-02-28T01:53:50;4.55;;;1.80;;
71771;SDS011;59606;52.138;5.424;2023-02-28T01:56:20;5.23;;;2.30;;
71771;SDS011;59606;52.138;5.424;2023-02-28T01:58:50;4.95;;;1.98;;
71771;SDS011;59606;52.138;5.424;2023-02-28T02:01:19;5.55;;;1.80;;
71771;SDS011;59606;52.138;5.424;2023-02-28T02:03:48;5.53;;;1.95;;
71771;SDS011;59606;52.138;5.424;2023-02-28T02:06:22;7.00;;;1.90;;
71771;SDS011;59606;52.138;5.424;2023-02-28T02:08:50;5.67;;;1.77;;
71771;SDS011;59606;52.138;5.424;2023-02-28T02:11:18;4.05;;;1.90;;
71771;SDS011;59606;52.138;5.424;2023-02-28T02:22:28;6.47;;;2.40;;
71771;SDS011;59606;52.138;5.424;2023-02-28T02:33:45;6.05;;;2.47;;
71771;SDS011;59606;52.138;5.424;2023-02-28T02:36:25;5.17;;;2.27;;
71771;SDS011;59606;52.138;5.424;2023-02-28T02:39:11;4.32;;;1.95;;
71771;SDS011;59606;52.138;5.424;2023-02-28T02:41:48;7.28;;;1.80;;
71771;SDS011;59606;52.138;5.424;2023-02-28T02:44:27;10.70;;;2.30;;
71771;SDS011;59606;52.138;5.424;2023-02-28T02:47:15;6.18;;;2.03;;
71771;SDS011;59606;52.138;5.424;2023-02-28T02:49:49;4.93;;;2.47;;
71771;SDS011;59606;52.138;5.424;2023-02-28T02:52:19;4.65;;;2.22;;
71771;SDS011;59606;52.138;5.424;2023-02-28T02:54:49;6.32;;;2.10;;
71771;SDS011;59606;52.138;5.424;2023-02-28T02:57:26;6.68;;;2.00;;
71771;SDS011;59606;52.138;5.424;2023-02-28T02:59:59;5.05;;;2.17;;
71771;SDS011;59606;52.138;5.424;2023-02-28T03:02:28;4.90;;;2.40;;
71771;SDS011;59606;52.138;5.424;2023-02-28T03:05:01;5.50;;;1.92;;
71771;SDS011;59606;52.138;5.424;2023-02-28T03:07:32;12.05;;;2.22;;
71771;SDS011;59606;52.138;5.424;2023-02-28T03:09:59;6.15;;;2.38;;
71771;SDS011;59606;52.138;5.424;2023-02-28T03:12:32;5.63;;;1.85;;
71771;SDS011;59606;52.138;5.424;2023-02-28T03:15:18;6.40;;;2.00;;
71771;SDS011;59606;52.138;5.424;2023-02-28T03:18:01;7.05;;;2.03;;
71771;SDS011;59606;52.138;5.424;2023-02-28T03:20:41;7.63;;;1.77;;
71771;SDS011;59606;52.138;5.424;2023-02-28T03:23:27;6.15;;;2.25;;
71771;SDS011;59606;52.138;5.424;2023-02-28T03:26:06;8.30;;;2.10;;
71771;SDS011;59606;52.138;5.424;2023-02-28T03:31:27;5.78;;;1.70;;
71771;SDS011;59606;52.138;5.424;2023-02-28T03:34:01;5.15;;;2.10;;
71771;SDS011;59606;52.138;5.424;2023-02-28T03:36:30;6.65;;;2.03;;
71771;SDS011;59606;52.138;5.424;2023-02-28T03:39:12;6.78;;;2.10;;
71771;SDS011;59606;52.138;5.424;2023-02-28T03:41:43;6.53;;;1.97;;
71771;SDS011;59606;52.138;5.424;2023-02-28T03:44:17;6.20;;;2.00;;
71771;SDS011;59606;52.138;5.424;2023-02-28T03:46:53;10.65;;;2.85;;
71771;SDS011;59606;52.138;5.424;2023-02-28T03:49:34;8.05;;;2.40;;
71771;SDS011;59606;52.138;5.424;2023-02-28T03:52:09;5.68;;;2.15;;
71771;SDS011;59606;52.138;5.424;2023-02-28T03:54:39;6.40;;;2.20;;
71771;SDS011;59606;52.138;5.424;2023-02-28T04:00:15;7.28;;;1.88;;
71771;SDS011;59606;52.138;5.424;2023-02-28T04:02:46;6.60;;;2.35;;
71771;SDS011;59606;52.138;5.424;2023-02-28T04:05:21;5.70;;;2.00;;
71771;SDS011;59606;52.138;5.424;2023-02-28T04:07:49;5.70;;;2.27;;
71771;SDS011;59606;52.138;5.424;2023-02-28T04:10:16;4.07;;;2.35;;
71771;SDS011;59606;52.138;5.424;2023-02-28T04:12:43;8.20;;;2.25;;
71771;SDS011;59606;52.138;5.424;2023-02-28T04:15:10;5.40;;;1.90;;
71771;SDS011;59606;52.138;5.424;2023-02-28T04:17:37;3.75;;;2.10;;
71771;SDS011;59606;52.138;5.424;2023-02-28T04:20:04;3.30;;;1.80;;
71771;SDS011;59606;52.138;5.424;2023-02-28T04:22:35;4.40;;;1.55;;
71771;SDS011;59606;52.138;5.424;2023-02-28T04:25:03;6.57;;;1.98;;
71771;SDS011;59606;52.138;5.424;2023-02-28T04:27:31;2.47;;;1.48;;
71771;SDS011;59606;52.138;5.424;2023-02-28T04:29:58;4.03;;;1.50;;
71771;SDS011;59606;52.138;5.424;2023-02-28T04:32:25;4.53;;;1.83;;
71771;SDS011;59606;52.138;5.424;2023-02-28T04:34:51;4.25;;;1.80;;
71771;SDS011;59606;52.138;5.424;2023-02-28T04:37:18;4.72;;;1.63;;
71771;SDS011;59606;52.138;5.424;2023-02-28T04:39:44;4.75;;;1.48;;
71771;SDS011;59606;52.138;5.424;2023-02-28T04:42:11;4.40;;;1.75;;
71771;SDS011;59606;52.138;5.424;2023-02-28T04:44:38;4.57;;;1.60;;
71771;SDS011;59606;52.138;5.424;2023-02-28T04:47:04;5.05;;;1.45;;
71771;SDS011;59606;52.138;5.424;2023-02-28T04:49:31;4.55;;;1.90;;
71771;SDS011;59606;52.138;5.424;2023-02-28T04:51:58;3.45;;;1.60;;
71771;SDS011;59606;52.138;5.424;2023-02-28T04:54:24;4.68;;;1.85;;
71771;SDS011;59606;52.138;5.424;2023-02-28T04:56:51;3.87;;;1.67;;
71771;SDS011;59606;52.138;5.424;2023-02-28T04:59:17;4.03;;;1.83;;
71771;SDS011;59606;52.138;5.424;2023-02-28T05:01:47;4.07;;;1.50;;
71771;SDS011;59606;52.138;5.424;2023-02-28T05:04:15;5.95;;;1.73;;
71771;SDS011;59606;52.138;5.424;2023-02-28T05:06:42;2.75;;;1.20;;
71771;SDS011;59606;52.138;5.424;2023-02-28T05:09:08;4.90;;;1.20;;
71771;SDS011;59606;52.138;5.424;2023-02-28T05:11:38;5.90;;;1.98;;
71771;SDS011;59606;52.138;5.424;2023-02-28T05:14:06;3.85;;;1.52;;
71771;SDS011;59606;52.138;5.424;2023-02-28T05:16:37;2.58;;;1.35;;
71771;SDS011;59606;52.138;5.424;2023-02-28T05:19:03;3.85;;;1.40;;
71771;SDS011;59606;52.138;5.424;2023-02-28T05:23:59;4.53;;;1.67;;
71771;SDS011;59606;52.138;5.424;2023-02-28T05:26:28;5.53;;;2.33;;
71771;SDS011;59606;52.138;5.424;2023-02-28T05:28:55;9.05;;;1.80;;
71771;SDS011;59606;52.138;5.424;2023-02-28T05:31:22;5.03;;;1.77;;
71771;SDS011;59606;52.138;5.424;2023-02-28T05:33:49;4.23;;;1.63;;
71771;SDS011;59606;52.138;5.424;2023-02-28T05:36:15;5.05;;;1.73;;
71771;SDS011;59606;52.138;5.424;2023-02-28T05:38:42;6.65;;;1.83;;
71771;SDS011;59606;52.138;5.424;2023-02-28T05:41:09;3.40;;;1.30;;
71771;SDS011;59606;52.138;5.424;2023-02-28T05:43:37;4.25;;;1.75;;
71771;SDS011;59606;52.138;5.424;2023-02-28T05:46:04;5.67;;;1.47;;
71771;SDS011;59606;52.138;5.424;2023-02-28T05:48:33;3.78;;;1.70;;
71771;SDS011;59606;52.138;5.424;2023-02-28T05:51:00;4.95;;;1.70;;
71771;SDS011;59606;52.138;5.424;2023-02-28T05:53:28;4.80;;;1.73;;
71771;SDS011;59606;52.138;5.424;2023-02-28T05:55:56;6.60;;;1.92;;
71771;SDS011;59606;52.138;5.424;2023-02-28T05:58:22;5.83;;;1.97;;
71771;SDS011;59606;52.138;5.424;2023-02-28T06:00:51;3.45;;;1.40;;
71771;SDS011;59606;52.138;5.424;2023-02-28T06:03:18;3.63;;;1.40;;
71771;SDS011;59606;52.138;5.424;2023-02-28T06:05:44;3.20;;;1.38;;
71771;SDS011;59606;52.138;5.424;2023-02-28T06:08:11;4.22;;;2.00;;
71771;SDS011;59606;52.138;5.424;2023-02-28T06:10:37;3.83;;;2.03;;
71771;SDS011;59606;52.138;5.424;2023-02-28T06:13:04;2.80;;;1.33;;
71771;SDS011;59606;52.138;5.424;2023-02-28T06:15:31;3.75;;;1.65;;
71771;SDS011;59606;52.138;5.424;2023-02-28T06:17:57;2.72;;;1.75;;
71771;SDS011;59606;52.138;5.424;2023-02-28T06:20:25;2.63;;;1.52;;
71771;SDS011;59606;52.138;5.424;2023-02-28T06:22:56;5.77;;;1.93;;
71771;SDS011;59606;52.138;5.424;2023-02-28T06:25:25;4.78;;;2.10;;
71771;SDS011;59606;52.138;5.424;2023-02-28T06:27:53;4.18;;;1.75;;
71771;SDS011;59606;52.138;5.424;2023-02-28T06:30:21;5.07;;;2.42;;
71771;SDS011;59606;52.138;5.424;2023-02-28T06:32:53;5.25;;;2.28;;
71771;SDS011;59606;52.138;5.424;2023-02-28T06:35:20;5.37;;;2.30;;
71771;SDS011;59606;52.138;5.424;2023-02-28T06:37:48;4.72;;;1.95;;
71771;SDS011;59606;52.138;5.424;2023-02-28T06:40:15;5.55;;;2.20;;
71771;SDS011;59606;52.138;5.424;2023-02-28T06:42:41;4.80;;;2.00;;
71771;SDS011;59606;52.138;5.424;2023-02-28T06:45:09;6.32;;;2.30;;
71771;SDS011;59606;52.138;5.424;2023-02-28T06:47:40;4.63;;;2.37;;
71771;SDS011;59606;52.138;5.424;2023-02-28T06:50:08;5.68;;;2.75;;
71771;SDS011;59606;52.138;5.424;2023-02-28T06:52:36;4.97;;;2.15;;
71771;SDS011;59606;52.138;5.424;2023-02-28T06:55:05;6.65;;;2.72;;
71771;SDS011;59606;52.138;5.424;2023-02-28T06:57:34;8.38;;;2.78;;
71771;SDS011;59606;52.138;5.424;2023-02-28T07:00:06;4.90;;;1.90;;
71771;SDS011;59606;52.138;5.424;2023-02-28T07:02:36;7.40;;;3.00;;
71771;SDS011;59606;52.138;5.424;2023-02-28T07:05:04;4.00;;;2.00;;
71771;SDS011;59606;52.138;5.424;2023-02-28T07:07:31;6.00;;;2.40;;
71771;SDS011;59606;52.138;5.424;2023-02-28T07:09:58;3.70;;;2.30;;
71771;SDS011;59606;52.138;5.424;2023-02-28T07:12:25;6.13;;;2.13;;
71771;SDS011;59606;52.138;5.424;2023-02-28T07:14:51;3.15;;;1.75;;
71771;SDS011;59606;52.138;5.424;2023-02-28T07:17:18;4.18;;;2.15;;
71771;SDS011;59606;52.138;5.424;2023-02-28T07:19:44;5.57;;;2.53;;
71771;SDS011;59606;52.138;5.424;2023-02-28T07:22:11;4.53;;;2.13;;
71771;SDS011;59606;52.138;5.424;2023-02-28T07:24:40;4.63;;;2.37;;
71771;SDS011;59606;52.138;5.424;2023-02-28T07:27:07;5.40;;;2.53;;
71771;SDS011;59606;52.138;5.424;2023-02-28T07:29:33;4.15;;;2.22;;
71771;SDS011;59606;52.138;5.424;2023-02-28T07:32:00;5.10;;;2.60;;
71771;SDS011;59606;52.138;5.424;2023-02-28T07:34:26;11.80;;;2.30;;
71771;SDS011;59606;52.138;5.424;2023-02-28T07:36:53;6.23;;;2.03;;
71771;SDS011;59606;52.138;5.424;2023-02-28T07:39:21;6.65;;;2.63;;
71771;SDS011;59606;52.138;5.424;2023-02-28T07:41:48;8.90;;;2.85;;
71771;SDS011;59606;52.138;5.424;2023-02-28T07:44:14;6.80;;;2.95;;
71771;SDS011;59606;52.138;5.424;2023-02-28T07:46:41;8.88;;;2.67;;
71771;SDS011;59606;52.138;5.424;2023-02-28T07:49:08;7.33;;;2.60;;
71771;SDS011;59606;52.138;5.424;2023-02-28T07:51:34;5.50;;;2.92;;
71771;SDS011;59606;52.138;5.424;2023-02-28T07:54:01;3.72;;;2.25;;
71771;SDS011;59606;52.138;5.424;2023-02-28T07:56:27;6.28;;;2.20;;
71771;SDS011;59606;52.138;5.424;2023-02-28T07:58:55;5.78;;;2.55;;
71771;SDS011;59606;52.138;5.424;2023-02-28T08:01:21;4.67;;;2.27;;
71771;SDS011;59606;52.138;5.424;2023-02-28T08:03:48;4.00;;;2.35;;
71771;SDS011;59606;52.138;5.424;2023-02-28T08:06:16;3.63;;;2.20;;
71771;SDS011;59606;52.138;5.424;2023-02-28T08:08:45;4.50;;;2.30;;
71771;SDS011;59606;52.138;5.424;2023-02-28T08:11:12;4.32;;;2.65;;
71771;SDS011;59606;52.138;5.424;2023-02-28T08:13:40;4.23;;;2.50;;
71771;SDS011;59606;52.138;5.424;2023-02-28T08:16:08;5.50;;;2.38;;
71771;SDS011;59606;52.138;5.424;2023-02-28T08:18:35;5.40;;;2.63;;
71771;SDS011;59606;52.138;5.424;2023-02-28T08:21:08;6.38;;;2.80;;
71771;SDS011;59606;52.138;5.424;2023-02-28T08:23:36;11.35;;;2.90;;
71771;SDS011;59606;52.138;5.424;2023-02-28T08:26:03;4.43;;;2.47;;
71771;SDS011;59606;52.138;5.424;2023-02-28T08:28:30;5.03;;;2.63;;
71771;SDS011;59606;52.138;5.424;2023-02-28T08:30:57;6.32;;;2.80;;
71771;SDS011;59606;52.138;5.424;2023-02-28T08:33:24;4.50;;;2.38;;
71771;SDS011;59606;52.138;5.424;2023-02-28T08:35:52;6.75;;;2.70;;
71771;SDS011;59606;52.138;5.424;2023-02-28T08:38:20;6.93;;;2.40;;
71771;SDS011;59606;52.138;5.424;2023-02-28T08:40:47;4.75;;;2.58;;
71771;SDS011;59606;52.138;5.424;2023-02-28T08:43:13;6.68;;;2.60;;
71771;SDS011;59606;52.138;5.424;2023-02-28T08:45:40;6.60;;;2.00;;
71771;SDS011;59606;52.138;5.424;2023-02-28T08:48:06;5.70;;;2.20;;
71771;SDS011;59606;52.138;5.424;2023-02-28T08:50:33;6.03;;;2.10;;
71771;SDS011;59606;52.138;5.424;2023-02-28T08:53:00;4.07;;;2.33;;
71771;SDS011;59606;52.138;5.424;2023-02-28T08:55:26;5.93;;;2.55;;
71771;SDS011;59606;52.138;5.424;2023-02-28T08:57:53;6.47;;;2.33;;
71771;SDS011;59606;52.138;5.424;2023-02-28T09:00:21;3.80;;;2.00;;
71771;SDS011;59606;52.138;5.424;2023-02-28T09:02:48;3.57;;;1.73;;
71771;SDS011;59606;52.138;5.424;2023-02-28T09:05:15;4.32;;;1.70;;
71771;SDS011;59606;52.138;5.424;2023-02-28T09:07:41;4.60;;;1.70;;
71771;SDS011;59606;52.138;5.424;2023-02-28T09:10:08;3.15;;;1.98;;
71771;SDS011;59606;52.138;5.424;2023-02-28T09:12:35;3.53;;;1.70;;
71771;SDS011;59606;52.138;5.424;2023-02-28T09:15:03;3.80;;;1.60;;
71771;SDS011;59606;52.138;5.424;2023-02-28T09:17:30;4.82;;;1.80;;
71771;SDS011;59606;52.138;5.424;2023-02-28T09:19:56;4.97;;;1.27;;
71771;SDS011;59606;52.138;5.424;2023-02-28T09:22:24;3.50;;;1.30;;
71771;SDS011;59606;52.138;5.424;2023-02-28T09:24:50;3.97;;;1.10;;
71771;SDS011;59606;52.138;5.424;2023-02-28T09:27:17;3.73;;;1.30;;
71771;SDS011;59606;52.138;5.424;2023-02-28T09:29:43;2.05;;;1.00;;
71771;SDS011;59606;52.138;5.424;2023-02-28T09:32:10;6.15;;;1.38;;
71771;SDS011;59606;52.138;5.424;2023-02-28T09:34:37;2.85;;;1.10;;
71771;SDS011;59606;52.138;5.424;2023-02-28T09:37:04;2.03;;;1.08;;
71771;SDS011;59606;52.138;5.424;2023-02-28T09:39:30;2.33;;;0.90;;
71771;SDS011;59606;52.138;5.424;2023-02-28T09:41:58;3.63;;;1.05;;
71771;SDS011;59606;52.138;5.424;2023-02-28T09:44:35;1.65;;;0.90;;
71771;SDS011;59606;52.138;5.424;2023-02-28T09:49:55;2.85;;;0.90;;
71771;SDS011;59606;52.138;5.424;2023-02-28T09:52:29;1.13;;;0.77;;
71771;SDS011;59606;52.138;5.424;2023-02-28T09:57:46;2.17;;;1.20;;
71771;SDS011;59606;52.138;5.424;2023-02-28T10:05:59;1.90;;;1.00;;
71771;SDS011;59606;52.138;5.424;2023-02-28T10:11:00;2.30;;;0.93;;
71771;SDS011;59606;52.138;5.424;2023-02-28T10:16:03;2.22;;;1.00;;
71771;SDS011;59606;52.138;5.424;2023-02-28T10:18:44;2.30;;;1.30;;
71771;SDS011;59606;52.138;5.424;2023-02-28T10:21:17;1.63;;;0.90;;
71771;SDS011;59606;52.138;5.424;2023-02-28T10:23:48;4.28;;;1.10;;
71771;SDS011;59606;52.138;5.424;2023-02-28T10:26:16;4.57;;;1.20;;
71771;SDS011;59606;52.138;5.424;2023-02-28T10:28:44;4.60;;;1.05;;
71771;SDS011;59606;52.138;5.424;2023-02-28T10:31:11;1.33;;;0.90;;
71771;SDS011;59606;52.138;5.424;2023-02-28T10:33:43;3.67;;;0.90;;
71771;SDS011;59606;52.138;5.424;2023-02-28T10:36:12;5.07;;;1.52;;
71771;SDS011;59606;52.138;5.424;2023-02-28T10:38:43;1.70;;;1.00;;
71771;SDS011;59606;52.138;5.424;2023-02-28T10:41:15;2.13;;;0.95;;
71771;SDS011;59606;52.138;5.424;2023-02-28T10:44:12;1.37;;;0.93;;
71771;SDS011;59606;52.138;5.424;2023-02-28T10:46:40;1.50;;;0.80;;
71771;SDS011;59606;52.138;5.424;2023-02-28T10:49:20;2.92;;;0.90;;
71771;SDS011;59606;52.138;5.424;2023-02-28T10:51:57;1.88;;;0.80;;
71771;SDS011;59606;52.138;5.424;2023-02-28T10:54:33;4.60;;;1.10;;
71771;SDS011;59606;52.138;5.424;2023-02-28T10:57:18;2.33;;;1.00;;
71771;SDS011;59606;52.138;5.424;2023-02-28T10:59:50;3.35;;;1.10;;
71771;SDS011;59606;52.138;5.424;2023-02-28T11:02:29;2.53;;;1.02;;
71771;SDS011;59606;52.138;5.424;2023-02-28T11:04:59;2.72;;;1.05;;
71771;SDS011;59606;52.138;5.424;2023-02-28T11:07:26;3.50;;;1.30;;
71771;SDS011;59606;52.138;5.424;2023-02-28T11:10:06;2.40;;;1.10;;
71771;SDS011;59606;52.138;5.424;2023-02-28T11:12:44;2.83;;;1.17;;
71771;SDS011;59606;52.138;5.424;2023-02-28T11:15:21;2.22;;;1.02;;
71771;SDS011;59606;52.138;5.424;2023-02-28T11:18:01;1.73;;;0.90;;
71771;SDS011;59606;52.138;5.424;2023-02-28T11:20:49;3.53;;;1.10;;
71771;SDS011;59606;52.138;5.424;2023-02-28T11:23:17;3.83;;;1.13;;
71771;SDS011;59606;52.138;5.424;2023-02-28T11:25:50;2.90;;;1.15;;
71771;SDS011;59606;52.138;5.424;2023-02-28T11:28:33;3.22;;;1.48;;
71771;SDS011;59606;52.138;5.424;2023-02-28T11:31:05;4.45;;;1.30;;
71771;SDS011;59606;52.138;5.424;2023-02-28T11:36:15;2.80;;;1.43;;
71771;SDS011;59606;52.138;5.424;2023-02-28T11:38:47;2.50;;;1.13;;
71771;SDS011;59606;52.138;5.424;2023-02-28T11:41:25;4.03;;;1.10;;
71771;SDS011;59606;52.138;5.424;2023-02-28T11:47:25;1.83;;;1.00;;
71771;SDS011;59606;52.138;5.424;2023-02-28T11:53:00;2.20;;;1.02;;
71771;SDS011;59606;52.138;5.424;2023-02-28T11:55:35;1.73;;;0.90;;
71771;SDS011;59606;52.138;5.424;2023-02-28T12:01:01;2.05;;;1.02;;
71771;SDS011;59606;52.138;5.424;2023-02-28T12:03:47;2.07;;;0.93;;
71771;SDS011;59606;52.138;5.424;2023-02-28T12:12:49;1.88;;;0.93;;
71771;SDS011;59606;52.138;5.424;2023-02-28T12:21:10;2.03;;;0.90;;
71771;SDS011;59606;52.138;5.424;2023-02-28T12:26:37;3.03;;;1.25;;
71771;SDS011;59606;52.138;5.424;2023-02-28T12:29:10;1.77;;;0.70;;
71771;SDS011;59606;52.138;5.424;2023-02-28T12:31:45;4.97;;;1.13;;
71771;SDS011;59606;52.138;5.424;2023-02-28T12:34:25;4.72;;;1.40;;
71771;SDS011;59606;52.138;5.424;2023-02-28T12:36:58;4.05;;;1.08;;
71771;SDS011;59606;52.138;5.424;2023-02-28T12:39:32;2.50;;;1.00;;
71771;SDS011;59606;52.138;5.424;2023-02-28T12:42:19;2.65;;;0.88;;
71771;SDS011;59606;52.138;5.424;2023-02-28T12:45:05;1.80;;;0.90;;
71771;SDS011;59606;52.138;5.424;2023-02-28T12:47:38;2.42;;;0.98;;
71771;SDS011;59606;52.138;5.424;2023-02-28T12:50:09;2.97;;;1.20;;
71771;SDS011;59606;52.138;5.424;2023-02-28T12:52:40;4.43;;;1.45;;
71771;SDS011;59606;52.138;5.424;2023-02-28T13:00:36;2.28;;;1.20;;
71771;SDS011;59606;52.138;5.424;2023-02-28T13:05:46;3.40;;;1.35;;
71771;SDS011;59606;52.138;5.424;2023-02-28T13:10:58;3.80;;;1.13;;
71771;SDS011;59606;52.138;5.424;2023-02-28T13:13:26;2.75;;;1.30;;
71771;SDS011;59606;52.138;5.424;2023-02-28T13:18:39;2.65;;;1.30;;
71771;SDS011;59606;52.138;5.424;2023-02-28T13:21:21;2.40;;;1.20;;
71771;SDS011;59606;52.138;5.424;2023-02-28T13:27:10;2.17;;;1.00;;
71771;SDS011;59606;52.138;5.424;2023-02-28T13:34:38;2.92;;;1.35;;
71771;SDS011;59606;52.138;5.424;2023-02-28T13:47:39;2.28;;;1.48;;
71771;SDS011;59606;52.138;5.424;2023-02-28T13:50:23;1.73;;;1.10;;
71771;SDS011;59606;52.138;5.424;2023-02-28T14:01:15;3.03;;;1.35;;
71771;SDS011;59606;52.138;5.424;2023-02-28T14:06:32;3.55;;;1.30;;
71771;SDS011;59606;52.138;5.424;2023-02-28T14:09:02;1.88;;;1.20;;
71771;SDS011;59606;52.138;5.424;2023-02-28T14:11:42;2.20;;;1.60;;
71771;SDS011;59606;52.138;5.424;2023-02-28T14:14:53;4.05;;;1.55;;
71771;SDS011;59606;52.138;5.424;2023-02-28T14:17:02;1.97;;;1.30;;
71771;SDS011;59606;52.138;5.424;2023-02-28T14:19:31;2.10;;;1.50;;
71771;SDS011;59606;52.138;5.424;2023-02-28T14:25:11;2.45;;;1.60;;
71771;SDS011;59606;52.138;5.424;2023-02-28T14:28:16;1.77;;;1.17;;
71771;SDS011;59606;52.138;5.424;2023-02-28T14:33:30;3.53;;;1.27;;
71771;SDS011;59606;52.138;5.424;2023-02-28T14:36:20;2.58;;;1.55;;
71771;SDS011;59606;52.138;5.424;2023-02-28T14:39:03;3.78;;;1.40;;
71771;SDS011;59606;52.138;5.424;2023-02-28T14:41:34;1.88;;;1.13;;
71771;SDS011;59606;52.138;5.424;2023-02-28T14:44:24;2.43;;;1.30;;
71771;SDS011;59606;52.138;5.424;2023-02-28T14:46:53;2.00;;;1.20;;
71771;SDS011;59606;52.138;5.424;2023-02-28T14:52:13;2.90;;;1.35;;
71771;SDS011;59606;52.138;5.424;2023-02-28T14:54:43;2.35;;;1.17;;
71771;SDS011;59606;52.138;5.424;2023-02-28T14:57:21;2.87;;;0.90;;
71771;SDS011;59606;52.138;5.424;2023-02-28T15:00:25;3.72;;;1.75;;
71771;SDS011;59606;52.138;5.424;2023-02-28T15:02:54;2.85;;;1.40;;
71771;SDS011;59606;52.138;5.424;2023-02-28T15:05:32;2.75;;;1.38;;
71771;SDS011;59606;52.138;5.424;2023-02-28T15:08:04;2.70;;;1.05;;
71771;SDS011;59606;52.138;5.424;2023-02-28T15:10:40;2.70;;;1.20;;
71771;SDS011;59606;52.138;5.424;2023-02-28T15:13:11;3.95;;;1.63;;
71771;SDS011;59606;52.138;5.424;2023-02-28T15:15:43;2.88;;;1.42;;
71771;SDS011;59606;52.138;5.424;2023-02-28T15:21:11;2.88;;;1.50;;
71771;SDS011;59606;52.138;5.424;2023-02-28T15:23:45;3.03;;;1.13;;
71771;SDS011;59606;52.138;5.424;2023-02-28T15:26:16;2.83;;;1.13;;
71771;SDS011;59606;52.138;5.424;2023-02-28T15:28:45;2.67;;;1.10;;
71771;SDS011;59606;52.138;5.424;2023-02-28T15:37:28;2.47;;;1.40;;
71771;SDS011;59606;52.138;5.424;2023-02-28T15:39:56;3.20;;;1.27;;
71771;SDS011;59606;52.138;5.424;2023-02-28T15:42:27;1.40;;;1.02;;
71771;SDS011;59606;52.138;5.424;2023-02-28T15:44:55;1.50;;;1.10;;
71771;SDS011;59606;52.138;5.424;2023-02-28T15:47:24;3.35;;;1.17;;
71771;SDS011;59606;52.138;5.424;2023-02-28T15:49:54;2.73;;;1.23;;
71771;SDS011;59606;52.138;5.424;2023-02-28T15:52:28;3.47;;;1.70;;
71771;SDS011;59606;52.138;5.424;2023-02-28T15:55:23;3.72;;;1.40;;
71771;SDS011;59606;52.138;5.424;2023-02-28T15:57:55;3.35;;;1.10;;
71771;SDS011;59606;52.138;5.424;2023-02-28T16:00:27;2.83;;;1.25;;
71771;SDS011;59606;52.138;5.424;2023-02-28T16:02:54;2.50;;;0.90;;
71771;SDS011;59606;52.138;5.424;2023-02-28T16:08:11;2.03;;;1.02;;
71771;SDS011;59606;52.138;5.424;2023-02-28T16:10:41;2.45;;;1.30;;
71771;SDS011;59606;52.138;5.424;2023-02-28T16:13:08;3.38;;;1.48;;
71771;SDS011;59606;52.138;5.424;2023-02-28T16:15:41;2.50;;;1.20;;
71771;SDS011;59606;52.138;5.424;2023-02-28T16:18:10;2.55;;;1.30;;
71771;SDS011;59606;52.138;5.424;2023-02-28T16:20:38;4.72;;;1.70;;
71771;SDS011;59606;52.138;5.424;2023-02-28T16:23:04;3.95;;;1.85;;
71771;SDS011;59606;52.138;5.424;2023-02-28T16:25:38;3.83;;;1.80;;
71771;SDS011;59606;52.138;5.424;2023-02-28T16:28:27;3.57;;;1.40;;
71771;SDS011;59606;52.138;5.424;2023-02-28T16:30:59;3.97;;;1.20;;
71771;SDS011;59606;52.138;5.424;2023-02-28T16:33:29;7.13;;;1.55;;
71771;SDS011;59606;52.138;5.424;2023-02-28T16:35:56;2.42;;;1.38;;
71771;SDS011;59606;52.138;5.424;2023-02-28T16:38:23;4.55;;;1.80;;
71771;SDS011;59606;52.138;5.424;2023-02-28T16:40:51;2.80;;;1.40;;
71771;SDS011;59606;52.138;5.424;2023-02-28T16:43:19;2.50;;;1.33;;
71771;SDS011;59606;52.138;5.424;2023-02-28T16:45:50;5.95;;;1.50;;
71771;SDS011;59606;52.138;5.424;2023-02-28T16:48:21;3.75;;;1.38;;
71771;SDS011;59606;52.138;5.424;2023-02-28T16:50:48;1.98;;;1.40;;
71771;SDS011;59606;52.138;5.424;2023-02-28T16:53:15;2.93;;;1.20;;
71771;SDS011;59606;52.138;5.424;2023-02-28T16:55:41;2.63;;;1.25;;
71771;SDS011;59606;52.138;5.424;2023-02-28T16:58:10;2.70;;;1.33;;
71771;SDS011;59606;52.138;5.424;2023-02-28T17:00:41;4.20;;;1.77;;
71771;SDS011;59606;52.138;5.424;2023-02-28T17:03:24;5.80;;;1.75;;
71771;SDS011;59606;52.138;5.424;2023-02-28T17:05:58;7.83;;;1.77;;
71771;SDS011;59606;52.138;5.424;2023-02-28T17:08:24;2.75;;;1.25;;
71771;SDS011;59606;52.138;5.424;2023-02-28T17:10:51;2.63;;;1.40;;
71771;SDS011;59606;52.138;5.424;2023-02-28T17:13:18;3.63;;;1.70;;
71771;SDS011;59606;52.138;5.424;2023-02-28T17:15:44;3.15;;;1.58;;
71771;SDS011;59606;52.138;5.424;2023-02-28T17:18:16;2.17;;;1.27;;
71771;SDS011;59606;52.138;5.424;2023-02-28T17:20:45;2.95;;;1.52;;
71771;SDS011;59606;52.138;5.424;2023-02-28T17:23:12;2.60;;;1.50;;